Time;durP1;ratioP1;P1;durP2;ratioP2;P2;SDS_P1;SDS_P2;PMS_P1;PMS_P2;Temp;Humidity;BMP_temperature;BMP_pressure;BME280_temperature;BME280_humidity;BME280_pressure;Samples;Min_cycle;Max_cycle;Signal;HPM_P1;HPM_P2
2020/12/09 00:04:01;;;;;;;19.30;7.18;;;;;;;-3.68;45.48;101417.03;10503463;28;20087;-51
2020/12/09 00:09:04;;;;;;;18.53;7.27;;;;;;;-3.68;45.05;101406.75;10509415;28;20044;-51
2020/12/09 00:14:07;;;;;;;9.52;4.90;;;;;;;-3.71;45.21;101399.91;10505090;28;20049;-51
2020/12/09 00:19:09;;;;;;;12.00;5.40;;;;;;;-3.72;45.01;101396.47;10503824;28;20040;-51
2020/12/09 00:24:11;;;;;;;13.75;4.60;;;;;;;-3.73;45.09;101387.03;10501876;28;20775;-51
2020/12/09 00:29:13;;;;;;;9.25;3.88;;;;;;;-3.70;44.52;101389.59;10500846;28;20045;-50
2020/12/09 00:34:16;;;;;;;12.20;5.50;;;;;;;-3.70;44.63;101387.03;10501500;28;20045;-49
2020/12/09 00:39:17;;;;;;;12.30;5.22;;;;;;;-3.67;44.58;101382.75;10504241;28;20144;-51
2020/12/09 00:44:19;;;;;;;14.85;4.97;;;;;;;-3.64;44.50;101387.91;10500790;28;20064;-51
2020/12/09 00:49:22;;;;;;;11.68;4.50;;;;;;;-3.67;44.46;101377.63;10494958;28;20114;-50
2020/12/09 00:54:24;;;;;;;9.73;4.27;;;;;;;-3.73;44.58;101383.59;10475403;28;20155;-50
2020/12/09 00:59:26;;;;;;;16.65;6.00;;;;;;;-3.77;44.89;101377.63;10458646;28;20052;-50
2020/12/09 01:04:29;;;;;;;12.82;5.70;;;;;;;-3.78;44.81;101375.91;10461676;28;20045;-49
2020/12/09 01:09:30;;;;;;;20.27;5.20;;;;;;;-3.80;44.70;101387.91;10501046;28;20139;-51
2020/12/09 01:14:32;;;;;;;12.30;5.15;;;;;;;-3.77;44.68;101372.47;10501346;28;20416;-50
2020/12/09 01:19:35;;;;;;;10.35;2.95;;;;;;;-3.76;44.67;101379.31;10500886;28;20417;-54
2020/12/09 01:24:37;;;;;;;15.93;5.85;;;;;;;-3.79;44.86;101373.31;10503358;28;20055;-50
2020/12/09 01:29:38;;;;;;;13.68;5.72;;;;;;;-3.78;44.77;101369.91;10501032;28;20050;-49
2020/12/09 01:34:41;;;;;;;11.82;4.78;;;;;;;-3.78;44.72;101375.91;10499129;28;20059;-50
2020/12/09 01:39:43;;;;;;;13.18;5.38;;;;;;;-3.78;44.64;101369.91;10499076;28;20044;-52
2020/12/09 01:44:44;;;;;;;12.93;5.03;;;;;;;-3.77;44.59;101367.34;10499586;28;20434;-52
2020/12/09 01:49:47;;;;;;;8.38;3.95;;;;;;;-3.75;44.68;101370.78;10499465;28;20068;-50
2020/12/09 01:54:51;;;;;;;12.57;5.15;;;;;;;-3.76;44.60;101369.03;10504495;28;20083;-50
2020/12/09 01:59:53;;;;;;;22.45;7.10;;;;;;;-3.74;44.75;101371.63;10503648;28;20040;-49
2020/12/09 02:04:56;;;;;;;13.65;6.35;;;;;;;-3.74;44.94;101376.75;10499488;28;20488;-57
2020/12/09 02:10:02;;;;;;;13.10;4.43;;;;;;;-3.78;44.82;101375.91;10499133;28;20052;-50
2020/12/09 02:15:05;;;;;;;13.88;5.32;;;;;;;-3.84;44.90;101373.34;10497812;28;20051;-50
2020/12/09 02:20:09;;;;;;;15.03;4.60;;;;;;;-3.84;44.94;101369.91;10498138;28;20106;-53
2020/12/09 02:25:12;;;;;;;9.20;3.50;;;;;;;-3.90;45.12;101365.63;10497669;28;20090;-55
2020/12/09 02:30:13;;;;;;;13.75;6.28;;;;;;;-4.00;45.02;101367.34;10497960;28;20064;-50
2020/12/09 02:35:15;;;;;;;11.75;4.22;;;;;;;-4.06;45.59;101364.75;10498267;28;20452;-52
2020/12/09 02:40:18;;;;;;;13.35;5.63;;;;;;;-4.06;45.30;101356.19;10499188;28;20485;-50
2020/12/09 02:45:19;;;;;;;6.23;2.77;;;;;;;-4.07;45.59;101354.47;10497913;28;20053;-50
2020/12/09 02:50:21;;;;;;;18.30;5.63;;;;;;;-4.17;45.71;101359.59;10495082;28;20057;-49
2020/12/09 02:55:23;;;;;;;10.65;4.57;;;;;;;-4.21;45.80;101355.31;10498583;28;20473;-52
2020/12/09 03:00:25;;;;;;;13.73;4.97;;;;;;;-4.20;45.91;101356.16;10502855;28;20045;-51
2020/12/09 03:05:27;;;;;;;12.05;4.72;;;;;;;-4.20;45.67;101366.44;10497619;28;20055;-49
2020/12/09 03:10:29;;;;;;;17.33;5.35;;;;;;;-4.21;45.49;101373.28;10497687;28;20044;-50
2020/12/09 03:15:31;;;;;;;12.03;4.10;;;;;;;-4.21;45.84;101370.72;10507718;28;20048;-49
2020/12/09 03:20:33;;;;;;;18.30;6.38;;;;;;;-4.15;45.40;101372.44;10505449;28;20056;-50
2020/12/09 03:25:35;;;;;;;14.60;6.07;;;;;;;-4.09;45.37;101371.59;10504028;28;20048;-50
2020/12/09 03:30:37;;;;;;;20.63;6.30;;;;;;;-4.11;45.26;101363.03;10504311;28;20139;-52
2020/12/09 03:35:39;;;;;;;17.25;7.03;;;;;;;-4.13;45.32;101365.59;10464237;28;20055;-49
2020/12/09 03:40:41;;;;;;;12.15;5.55;;;;;;;-4.18;44.86;101375.88;10471242;28;20513;-52
2020/12/09 03:45:43;;;;;;;13.60;5.55;;;;;;;-4.26;45.01;101366.41;10508896;28;20047;-52
2020/12/09 03:50:45;;;;;;;13.13;5.60;;;;;;;-4.32;45.17;101377.53;10506252;28;20048;-53
2020/12/09 03:55:48;;;;;;;22.33;7.32;;;;;;;-4.39;45.17;101380.94;10504691;28;20057;-53
2020/12/09 04:00:50;;;;;;;4.63;2.30;;;;;;;-4.48;45.29;101383.47;10503300;28;20083;-51
2020/12/09 04:05:51;;;;;;;12.88;4.25;;;;;;;-4.56;45.48;101382.59;10502746;28;20045;-51
2020/12/09 04:10:54;;;;;;;15.07;5.22;;;;;;;-4.61;45.27;101384.28;10501544;28;20143;-53
2020/12/09 04:15:56;;;;;;;15.20;5.17;;;;;;;-4.71;45.43;101379.13;10502130;28;20049;-52
2020/12/09 04:20:57;;;;;;;23.10;8.82;;;;;;;-4.80;46.00;101380.78;10504090;28;20135;-50
2020/12/09 04:26:00;;;;;;;16.33;6.53;;;;;;;-4.83;45.87;101384.22;10501405;28;20048;-51
2020/12/09 04:31:01;;;;;;;16.27;6.38;;;;;;;-4.87;45.86;101390.16;10502990;28;20045;-49
2020/12/09 04:36:03;;;;;;;16.77;6.90;;;;;;;-4.84;45.76;101387.59;10502164;28;20492;-50
2020/12/09 04:41:06;;;;;;;17.85;6.05;;;;;;;-4.88;45.90;101386.72;10500831;28;20068;-52
2020/12/09 04:46:08;;;;;;;14.23;4.40;;;;;;;-4.91;46.28;101393.56;10466307;28;20106;-53
2020/12/09 04:51:29;;;;;;;18.52;6.70;;;;;;;-4.99;46.09;101384.97;10499157;28;20091;-50
2020/12/09 04:56:37;;;;;;;15.40;5.88;;;;;;;-5.03;46.12;101380.66;10501125;28;20057;-50
2020/12/09 05:02:00;;;;;;;10.00;3.88;;;;;;;-5.01;46.10;101390.09;10500769;28;20199;-50
2020/12/09 05:07:09;;;;;;;14.98;6.25;;;;;;;-5.01;46.05;101386.69;10488871;28;20048;-50
2020/12/09 05:12:17;;;;;;;21.90;7.15;;;;;;;-5.02;46.34;101380.66;10459412;28;20079;-48
2020/12/09 05:17:21;;;;;;;13.52;5.25;;;;;;;-4.98;45.94;101394.38;10458977;28;20139;-49
2020/12/09 05:22:22;;;;;;;16.95;5.47;;;;;;;-5.00;45.99;101391.78;10464115;28;20082;-52
2020/12/09 05:27:26;;;;;;;16.55;6.88;;;;;;;-4.96;46.08;101382.41;10501996;28;20502;-52
2020/12/09 05:32:29;;;;;;;21.00;8.10;;;;;;;-4.89;45.79;101394.44;10507449;28;20139;-49
2020/12/09 05:37:30;;;;;;;18.55;5.57;;;;;;;-4.90;45.93;101398.69;10499754;28;20048;-50
2020/12/09 05:42:33;;;;;;;19.30;6.53;;;;;;;-4.97;45.60;101406.34;10499577;28;20075;-49
2020/12/09 05:47:35;;;;;;;16.33;7.13;;;;;;;-4.77;46.25;101399.63;10497919;28;20052;-52
2020/12/09 05:52:39;;;;;;;19.73;6.72;;;;;;;-4.33;46.47;101391.22;10495103;28;20052;-49
2020/12/09 05:57:42;;;;;;;15.00;5.78;;;;;;;-3.88;45.94;101391.31;10460170;28;20060;-50
2020/12/09 06:02:44;;;;;;;23.13;7.22;;;;;;;-3.29;46.32;101395.59;10459059;28;20056;-55
2020/12/09 06:07:45;;;;;;;17.23;6.50;;;;;;;-2.52;45.61;101398.84;10463659;28;20056;-54
2020/12/09 06:13:01;;;;;;;17.67;6.40;;;;;;;-1.73;44.70;101404.38;10461280;28;20675;-55
2020/12/09 06:18:10;;;;;;;15.43;7.20;;;;;;;-0.98;43.53;101401.13;10456384;28;20041;-52
2020/12/09 06:23:13;;;;;;;19.88;7.95;;;;;;;-0.24;42.03;101396.78;10466806;28;20066;-51
2020/12/09 06:28:17;;;;;;;12.52;5.95;;;;;;;-0.40;40.04;101407.34;10498541;28;20500;-50
2020/12/09 06:33:30;;;;;;;16.58;7.03;;;;;;;-1.36;40.10;101398.91;10497909;28;20052;-51
2020/12/09 06:38:31;;;;;;;21.77;8.18;;;;;;;-2.00;40.28;101395.97;10455545;28;20144;-52
2020/12/09 06:43:34;;;;;;;19.55;8.23;;;;;;;-2.35;40.70;101396.16;10485499;28;20398;-53
2020/12/09 06:48:39;;;;;;;17.83;7.05;;;;;;;-2.55;40.96;101397.13;10498027;28;20052;-53
2020/12/09 06:53:41;;;;;;;15.50;6.90;;;;;;;-2.67;41.08;101393.75;10509134;28;20048;-54
2020/12/09 06:58:43;;;;;;;13.98;4.95;;;;;;;-2.72;41.21;101392.88;10512543;28;20050;-53
2020/12/09 07:03:52;;;;;;;17.98;6.72;;;;;;;-2.90;41.16;101394.66;10510026;28;20154;-54
2020/12/09 07:08:53;;;;;;;21.20;8.10;;;;;;;-2.94;41.51;101387.81;10506006;28;20086;-55
2020/12/09 07:14:05;;;;;;;14.43;6.90;;;;;;;-2.80;41.54;101400.66;10463408;28;20073;-55
2020/12/09 07:19:14;;;;;;;21.23;7.82;;;;;;;-2.45;41.60;101397.06;10485566;28;20135;-51
2020/12/09 07:24:15;;;;;;;17.20;7.53;;;;;;;-0.13;42.98;101394.03;10506237;28;20052;-50
2020/12/09 07:29:22;;;;;;;17.42;9.10;;;;;;;2.51;41.59;101392.38;10506148;28;20051;-52
2020/12/09 07:34:23;;;;;;;23.23;10.05;;;;;;;4.50;39.77;101387.53;10504611;28;20060;-53
2020/12/09 07:39:29;;;;;;;19.20;8.63;;;;;;;6.05;37.63;101382.78;10505331;28;20044;-54
2020/12/09 07:44:32;;;;;;;15.55;8.02;;;;;;;7.49;35.87;101378.41;10503245;28;20055;-50
2020/12/09 07:49:34;;;;;;;19.75;9.55;;;;;;;8.38;33.08;101376.81;10500455;28;20143;-52
2020/12/09 07:54:36;;;;;;;27.73;11.48;;;;;;;7.81;30.67;101375.13;10502914;28;20065;-53
2020/12/09 07:59:39;;;;;;;22.05;9.73;;;;;;;5.41;30.94;101378.22;10501479;28;20480;-55
2020/12/09 08:04:40;;;;;;;22.30;10.93;;;;;;;3.55;31.20;101375.72;10503143;28;20397;-54
2020/12/09 08:09:42;;;;;;;19.95;8.55;;;;;;;2.45;32.13;101374.34;10503047;28;20040;-52
2020/12/09 08:14:45;;;;;;;18.60;10.00;;;;;;;1.46;32.36;101367.13;10501691;28;20059;-52
2020/12/09 08:19:58;;;;;;;30.30;11.40;;;;;;;0.80;33.34;101373.59;10503500;28;20484;-53
2020/12/09 08:25:07;;;;;;;24.40;8.93;;;;;;;0.31;33.44;101373.56;10505395;28;20519;-55
2020/12/09 08:30:17;;;;;;;20.30;8.52;;;;;;;-0.14;34.21;101376.00;10478010;28;20504;-61
2020/12/09 08:35:18;;;;;;;17.45;8.50;;;;;;;-0.50;34.33;101368.69;10502680;28;20139;-56
2020/12/09 08:40:20;;;;;;;16.95;7.93;;;;;;;-0.75;35.11;101367.31;10502108;28;20048;-54
2020/12/09 08:45:23;;;;;;;23.33;8.38;;;;;;;-0.87;35.16;101367.44;10501848;28;20052;-53
2020/12/09 08:50:24;;;;;;;16.70;8.30;;;;;;;-1.03;35.98;101367.63;10497620;28;20051;-53
2020/12/09 08:55:26;;;;;;;19.52;9.23;;;;;;;-1.04;36.14;101363.34;10500686;28;20067;-53
2020/12/09 09:00:29;;;;;;;19.70;8.07;;;;;;;1.82;36.84;101352.50;10500739;28;20110;-52
2020/12/09 09:05:30;;;;;;;21.08;8.35;;;;;;;4.48;33.03;101353.72;10499605;28;20052;-53
2020/12/09 09:10:32;;;;;;;18.58;8.27;;;;;;;6.87;31.19;101347.16;10499734;28;20048;-53
2020/12/09 09:15:35;;;;;;;22.38;10.30;;;;;;;8.19;29.17;101338.41;10501777;28;20048;-52
2020/12/09 09:20:37;;;;;;;19.38;8.77;;;;;;;9.45;28.28;101329.28;10500872;28;20051;-54
2020/12/09 09:25:39;;;;;;;25.33;9.95;;;;;;;10.14;26.64;101321.03;10497480;28;20045;-53
2020/12/09 09:30:41;;;;;;;19.10;9.25;;;;;;;10.42;25.28;101319.47;10499249;28;20142;-54
2020/12/09 09:35:43;;;;;;;19.15;10.45;;;;;;;10.48;25.52;101319.09;10499151;28;20052;-54
2020/12/09 09:40:44;;;;;;;22.58;10.50;;;;;;;10.76;24.89;101322.72;10497592;28;20062;-54
2020/12/09 09:45:48;;;;;;;24.02;9.98;;;;;;;10.34;25.79;101326.94;10498804;28;20129;-53
2020/12/09 09:50:50;;;;;;;15.57;8.23;;;;;;;9.27;26.18;101328.53;10496647;28;20079;-53
2020/12/09 09:55:51;;;;;;;21.50;9.63;;;;;;;7.36;27.28;101329.25;10502752;28;20067;-54
2020/12/09 10:00:54;;;;;;;22.02;9.38;;;;;;;5.69;26.94;101322.38;10501496;28;20051;-53
2020/12/09 10:05:56;;;;;;;16.90;8.98;;;;;;;4.39;27.81;101317.56;10499710;28;20058;-53
2020/12/09 10:11:02;;;;;;;20.63;9.73;;;;;;;3.36;28.69;101327.78;10499154;28;20055;-53
2020/12/09 10:16:04;;;;;;;20.45;8.07;;;;;;;2.74;29.72;101329.47;10496276;28;20546;-53
2020/12/09 10:21:06;;;;;;;21.85;9.25;;;;;;;2.18;30.37;101329.16;10497460;28;20062;-55
2020/12/09 10:26:07;;;;;;;22.52;8.38;;;;;;;1.80;30.47;101327.50;10495984;28;20052;-53
2020/12/09 10:31:10;;;;;;;24.38;9.30;;;;;;;1.45;30.79;101316.19;10497511;28;20044;-53
2020/12/09 10:36:12;;;;;;;25.85;8.57;;;;;;;1.08;31.26;101321.28;10496170;28;20063;-53
2020/12/09 10:41:13;;;;;;;20.48;9.38;;;;;;;0.63;31.71;101314.34;10496980;28;20052;-52
2020/12/09 10:46:16;;;;;;;20.58;8.45;;;;;;;0.42;32.20;101314.75;10497776;28;20690;-53
2020/12/09 10:51:18;;;;;;;20.45;8.50;;;;;;;0.33;32.69;101310.56;10495341;28;20044;-52
2020/12/09 10:56:25;;;;;;;22.00;9.10;;;;;;;0.17;33.25;101309.13;10496264;28;20061;-51
2020/12/09 11:01:27;;;;;;;21.83;9.55;;;;;;;0.01;33.03;101308.53;10497896;28;20772;-54
2020/12/09 11:06:30;;;;;;;21.85;9.57;;;;;;;-0.10;33.87;101303.53;10498416;28;20098;-53
2020/12/09 11:11:33;;;;;;;19.47;8.20;;;;;;;-0.11;33.74;101303.56;10498773;28;20052;-53
2020/12/09 11:16:36;;;;;;;23.15;9.00;;;;;;;-0.15;33.62;101297.59;10497945;28;20389;-54
2020/12/09 11:21:38;;;;;;;15.20;8.23;;;;;;;-0.19;33.90;101295.06;10495320;28;20159;-59
2020/12/09 11:26:39;;;;;;;15.15;5.10;;;;;;;-0.19;34.39;101290.75;10496778;28;20060;-55
2020/12/09 11:31:42;;;;;;;19.88;7.20;;;;;;;-0.29;34.14;101296.94;10496464;28;20143;-53
2020/12/09 11:36:44;;;;;;;22.15;7.65;;;;;;;-0.33;34.47;101297.88;10501390;28;20044;-55
2020/12/09 11:41:45;;;;;;;12.60;4.90;;;;;;;-0.41;34.69;101295.38;10503461;28;20082;-54
2020/12/09 11:46:48;;;;;;;15.90;6.80;;;;;;;-0.52;35.11;101297.28;10501050;28;20044;-55
2020/12/09 11:51:50;;;;;;;16.23;6.30;;;;;;;-0.51;35.16;101293.81;10502966;28;20508;-53
2020/12/09 11:56:51;;;;;;;13.40;6.20;;;;;;;-0.58;35.23;101297.38;10505805;28;20087;-52
2020/12/09 12:01:54;;;;;;;11.65;6.03;;;;;;;-0.67;35.91;101288.00;10504504;28;20060;-52
2020/12/09 12:06:56;;;;;;;15.00;6.22;;;;;;;-0.70;35.98;101288.06;10502288;28;20048;-52
2020/12/09 12:11:58;;;;;;;15.35;6.05;;;;;;;-0.68;35.91;101285.44;10503803;28;20044;-51
2020/12/09 12:17:07;;;;;;;17.35;8.45;;;;;;;-0.71;35.76;101286.31;10503530;28;20049;-54
2020/12/09 12:22:09;;;;;;;12.55;5.28;;;;;;;-0.79;36.05;101283.84;10503782;28;20493;-53
2020/12/09 12:27:12;;;;;;;16.63;6.10;;;;;;;-0.85;36.11;101289.09;10486495;28;20053;-53
2020/12/09 12:32:15;;;;;;;12.38;5.65;;;;;;;-0.94;36.33;101292.66;10462218;28;20177;-51
2020/12/09 12:37:17;;;;;;;11.57;4.43;;;;;;;-1.06;36.93;101300.53;10463246;28;20080;-52
2020/12/09 12:42:19;;;;;;;11.98;5.53;;;;;;;-1.17;37.26;101302.38;10484293;28;20290;-56
2020/12/09 12:47:22;;;;;;;14.52;6.28;;;;;;;-1.28;37.41;101297.34;10502615;28;20051;-52
2020/12/09 12:52:23;;;;;;;12.37;5.87;;;;;;;-1.34;37.53;101304.31;10502710;28;20048;-53
2020/12/09 12:57:25;;;;;;;13.90;4.72;;;;;;;-1.35;37.65;101297.44;10502039;28;20067;-53
2020/12/09 13:02:28;;;;;;;18.48;6.80;;;;;;;-1.38;37.78;101305.22;10503740;28;20054;-54
2020/12/09 13:07:30;;;;;;;15.10;5.57;;;;;;;-1.38;38.09;101289.75;10503255;28;20048;-51
2020/12/09 13:12:32;;;;;;;17.40;5.75;;;;;;;-1.42;37.93;101294.06;10502790;28;20052;-53
2020/12/09 13:17:35;;;;;;;13.05;4.80;;;;;;;-1.49;37.97;101295.84;10500490;28;20380;-52
2020/12/09 13:22:37;;;;;;;7.87;2.77;;;;;;;-1.55;37.94;101295.91;10501229;28;20388;-52
2020/12/09 13:27:39;;;;;;;8.02;3.35;;;;;;;-1.56;38.12;101289.06;10500796;28;20048;-51
2020/12/09 13:32:42;;;;;;;8.27;2.70;;;;;;;-1.60;38.66;101286.50;10501426;28;20451;-52
2020/12/09 13:37:44;;;;;;;14.00;4.97;;;;;;;-1.64;38.23;101276.22;10501195;28;20055;-52
2020/12/09 13:42:46;;;;;;;12.52;4.05;;;;;;;-1.68;38.80;101282.28;10500619;28;20048;-51
2020/12/09 13:47:49;;;;;;;13.68;5.57;;;;;;;-1.72;38.86;101272.03;10499478;28;20052;-51
2020/12/09 13:52:51;;;;;;;14.93;5.40;;;;;;;-1.73;39.24;101275.47;10499203;28;20052;-51
2020/12/09 13:57:53;;;;;;;8.55;4.68;;;;;;;-1.74;39.23;101281.50;10498928;28;20071;-53
2020/12/09 14:02:56;;;;;;;13.98;5.47;;;;;;;-1.74;39.10;101279.75;10497586;28;20048;-56
2020/12/09 14:07:58;;;;;;;11.03;5.33;;;;;;;-1.74;39.40;101273.75;10499997;28;20033;-57
2020/12/09 14:13:00;;;;;;;13.57;5.80;;;;;;;-1.76;39.63;101270.31;10501225;28;20048;-52
2020/12/09 14:18:03;;;;;;;15.15;5.45;;;;;;;-1.77;39.13;101276.38;10470370;28;20055;-53
2020/12/09 14:23:05;;;;;;;16.13;6.05;;;;;;;-1.81;39.81;101259.22;10486058;28;20055;-55
2020/12/09 14:28:09;;;;;;;18.00;6.78;;;;;;;-1.81;39.59;101256.66;10503522;28;20489;-54
2020/12/09 14:33:11;;;;;;;15.65;6.60;;;;;;;-1.82;39.52;101254.91;10500268;28;20048;-55
2020/12/09 14:38:13;;;;;;;11.47;5.90;;;;;;;-1.83;39.80;101250.63;10499297;28;20044;-57
2020/12/09 14:43:15;;;;;;;13.52;6.60;;;;;;;-1.87;40.03;101250.66;10499216;28;20055;-52
2020/12/09 14:48:17;;;;;;;12.65;6.78;;;;;;;-1.88;40.02;101254.13;10497681;28;20056;-52
2020/12/09 14:53:19;;;;;;;15.55;6.28;;;;;;;-1.88;39.81;101251.53;10498633;28;20048;-54
2020/12/09 14:58:22;;;;;;;16.13;5.60;;;;;;;-1.94;40.32;101251.59;10498417;28;20364;-55
2020/12/09 15:03:24;;;;;;;12.67;6.20;;;;;;;-1.98;40.45;101244.75;10496473;28;20079;-51
2020/12/09 15:08:26;;;;;;;17.10;5.75;;;;;;;-1.96;40.17;101252.47;10500136;28;20048;-53
2020/12/09 15:13:28;;;;;;;14.05;6.22;;;;;;;-2.00;40.89;101240.47;10508974;28;20068;-60
2020/12/09 15:18:30;;;;;;;13.77;4.72;;;;;;;-2.01;40.59;101243.94;10505408;28;20131;-52
2020/12/09 15:23:32;;;;;;;15.95;6.40;;;;;;;-2.03;40.86;101236.22;10503418;28;20049;-51
2020/12/09 15:28:34;;;;;;;14.40;5.28;;;;;;;-2.07;40.88;101239.66;10504206;28;20053;-51
2020/12/09 15:33:36;;;;;;;13.45;5.65;;;;;;;-2.10;41.19;101250.84;10504885;28;20056;-52
2020/12/09 15:38:38;;;;;;;13.93;5.05;;;;;;;-2.15;40.83;101246.63;10505328;28;20059;-58
2020/12/09 15:43:40;;;;;;;11.73;5.38;;;;;;;-2.19;41.33;101256.09;10503244;28;20044;-54
2020/12/09 15:48:42;;;;;;;11.65;5.28;;;;;;;-2.21;41.16;101244.09;10503696;28;20055;-51
2020/12/09 15:53:44;;;;;;;19.70;7.05;;;;;;;-2.22;41.07;101250.09;10503254;28;20067;-52
2020/12/09 15:58:46;;;;;;;14.30;5.80;;;;;;;-2.25;41.41;101238.09;10503466;28;20465;-54
2020/12/09 16:03:48;;;;;;;16.15;5.43;;;;;;;-2.27;41.45;101246.72;10502925;28;20071;-52
2020/12/09 16:08:50;;;;;;;12.70;3.05;;;;;;;-2.33;41.57;101248.47;10502431;28;20052;-52
2020/12/09 16:13:52;;;;;;;11.90;6.20;;;;;;;-2.36;41.92;101243.34;10486600;28;20056;-51
2020/12/09 16:18:54;;;;;;;12.00;5.10;;;;;;;-2.40;41.46;101241.66;10460931;28;20083;-51
2020/12/09 16:23:56;;;;;;;13.70;6.07;;;;;;;-2.42;41.86;101243.41;10467786;28;20052;-51
2020/12/09 16:28:58;;;;;;;7.78;3.45;;;;;;;-2.43;41.67;101245.97;10487246;28;20478;-51
2020/12/09 16:34:01;;;;;;;12.45;4.38;;;;;;;-2.48;41.64;101240.00;10464300;28;20056;-51
2020/12/09 16:39:02;;;;;;;8.73;3.63;;;;;;;-2.54;41.91;101238.31;10459985;28;20045;-52
2020/12/09 16:44:04;;;;;;;11.27;4.63;;;;;;;-2.58;41.86;101228.94;10495379;28;20088;-52
2020/12/09 16:49:07;;;;;;;15.38;6.07;;;;;;;-2.64;41.91;101232.38;10498099;28;20135;-51
2020/12/09 16:54:08;;;;;;;6.45;2.78;;;;;;;-2.67;41.87;101226.41;10500112;28;20052;-52
2020/12/09 16:59:11;;;;;;;12.77;4.88;;;;;;;-2.71;41.61;101228.16;10500788;28;20368;-52
2020/12/09 17:04:14;;;;;;;10.93;5.05;;;;;;;-2.75;41.90;101233.31;10503690;28;20048;-54
2020/12/09 17:09:16;;;;;;;7.75;3.17;;;;;;;-2.80;42.07;101225.63;10465398;28;20072;-59
2020/12/09 17:14:18;;;;;;;10.13;4.10;;;;;;;-2.82;42.04;101230.78;10501438;28;20051;-51
2020/12/09 17:19:21;;;;;;;15.05;5.38;;;;;;;-2.81;41.83;101223.91;10499749;28;20048;-52
2020/12/09 17:24:24;;;;;;;15.77;4.83;;;;;;;-2.85;41.64;101220.50;10499705;28;20060;-51
2020/12/09 17:29:28;;;;;;;8.73;3.38;;;;;;;-2.84;41.59;101229.91;10500302;28;20045;-52
2020/12/09 17:34:30;;;;;;;11.63;4.53;;;;;;;-2.86;41.71;101236.81;10499939;28;20076;-52
2020/12/09 17:39:32;;;;;;;12.02;3.90;;;;;;;-2.89;41.93;101225.69;10500459;28;20045;-51
2020/12/09 17:44:34;;;;;;;11.45;4.60;;;;;;;-2.91;41.99;101219.69;10482171;28;20048;-53
2020/12/09 17:49:37;;;;;;;14.32;5.85;;;;;;;-2.92;41.82;101223.13;10496312;28;20052;-51
2020/12/09 17:54:38;;;;;;;13.30;5.10;;;;;;;-2.99;41.85;101224.00;10498917;28;20143;-54
2020/12/09 17:59:40;;;;;;;13.45;5.60;;;;;;;-2.99;41.89;101214.56;10497629;28;20041;-52
2020/12/09 18:04:42;;;;;;;8.45;4.35;;;;;;;-3.03;41.89;101212.88;10499400;28;20465;-52
2020/12/09 18:09:44;;;;;;;12.02;5.20;;;;;;;-3.03;42.12;101220.59;10499331;28;20087;-53
2020/12/09 18:14:46;;;;;;;15.98;6.30;;;;;;;-3.05;42.05;101223.19;10497979;28;20135;-51
2020/12/09 18:19:48;;;;;;;9.40;3.70;;;;;;;-3.08;41.81;101219.75;10496947;28;20398;-53
2020/12/09 18:24:50;;;;;;;11.45;3.95;;;;;;;-3.10;41.84;101211.22;10499653;28;20393;-58
2020/12/09 18:29:52;;;;;;;10.95;3.90;;;;;;;-3.07;41.94;101206.06;10499331;28;20048;-54
2020/12/09 18:34:55;;;;;;;6.72;2.83;;;;;;;-3.08;41.74;101204.31;10496951;28;20044;-51
2020/12/09 18:39:57;;;;;;;3.30;1.63;;;;;;;-3.06;41.71;101210.31;10497327;28;20416;-51
2020/12/09 18:44:58;;;;;;;7.32;2.78;;;;;;;-3.13;41.55;101195.78;10499006;28;20139;-54
2020/12/09 18:50:01;;;;;;;6.30;3.00;;;;;;;-3.18;41.72;101190.66;10503849;28;20497;-51
2020/12/09 18:55:03;;;;;;;15.98;5.07;;;;;;;-3.21;41.85;101203.53;10505893;28;20155;-51
2020/12/09 19:00:05;;;;;;;7.60;2.80;;;;;;;-3.21;41.78;101213.81;10505439;28;20045;-51
2020/12/09 19:05:08;;;;;;;12.35;3.88;;;;;;;-3.24;41.74;101204.41;10503725;28;20052;-51
2020/12/09 19:10:09;;;;;;;11.25;4.18;;;;;;;-3.25;41.62;101212.13;10504543;28;20139;-51
2020/12/09 19:15:11;;;;;;;6.32;2.42;;;;;;;-3.29;41.67;101206.16;10505152;28;20143;-51
2020/12/09 19:20:15;;;;;;;14.15;4.30;;;;;;;-3.31;42.09;101200.16;10504348;28;20501;-53
2020/12/09 19:25:17;;;;;;;12.18;6.03;;;;;;;-3.37;41.97;101197.59;10504149;28;20048;-51
2020/12/09 19:30:18;;;;;;;6.30;1.90;;;;;;;-3.41;42.24;101195.91;10503700;28;20080;-51
2020/12/09 19:35:21;;;;;;;13.25;6.03;;;;;;;-3.41;42.34;101206.19;10503581;28;20044;-51
2020/12/09 19:40:23;;;;;;;8.77;3.72;;;;;;;-3.39;42.18;101195.91;10503483;28;20040;-53
2020/12/09 19:45:25;;;;;;;9.23;4.07;;;;;;;-3.44;42.36;101203.63;10502409;28;20135;-51
2020/12/09 19:50:27;;;;;;;8.18;3.08;;;;;;;-3.45;42.27;101190.78;10502514;28;20040;-51
2020/12/09 19:55:29;;;;;;;7.20;3.03;;;;;;;-3.47;42.26;101204.50;10503387;28;20075;-52
2020/12/09 20:00:31;;;;;;;4.15;2.03;;;;;;;-3.49;42.19;101215.66;10504728;28;20048;-56
2020/12/09 20:05:34;;;;;;;12.45;4.95;;;;;;;-3.53;42.46;101211.38;10503280;28;20067;-52
2020/12/09 20:10:35;;;;;;;11.55;4.22;;;;;;;-3.51;42.30;101213.09;10503267;28;20051;-52
2020/12/09 20:15:37;;;;;;;11.23;5.22;;;;;;;-3.53;42.74;101212.25;10503748;28;20064;-54
2020/12/09 20:20:40;;;;;;;21.33;4.28;;;;;;;-3.53;42.64;101213.97;10502721;28;20055;-52
2020/12/09 20:25:42;;;;;;;13.90;4.40;;;;;;;-3.59;42.81;101216.53;10502332;28;20114;-51
2020/12/09 20:30:44;;;;;;;15.02;5.15;;;;;;;-3.62;42.83;101201.13;10501391;28;20316;-53
2020/12/09 20:35:46;;;;;;;15.30;3.88;;;;;;;-3.64;43.05;101203.69;10501463;28;20076;-52
2020/12/09 20:40:49;;;;;;;17.63;6.15;;;;;;;-3.70;42.92;101191.72;10501992;28;20055;-50
2020/12/09 20:45:50;;;;;;;13.05;5.18;;;;;;;-3.69;42.73;101195.16;10500915;28;20094;-51
2020/12/09 20:50:54;;;;;;;8.90;3.90;;;;;;;-3.72;42.65;101195.16;10498725;28;20045;-50
2020/12/09 20:55:55;;;;;;;5.97;3.10;;;;;;;-3.78;43.00;101192.63;10502040;28;20091;-51
2020/12/09 21:00:57;;;;;;;11.02;5.03;;;;;;;-3.75;42.88;101185.75;10502026;28;20075;-51
2020/12/09 21:05:59;;;;;;;12.10;5.10;;;;;;;-3.79;43.24;101184.03;10499296;28;20057;-54
2020/12/09 21:11:01;;;;;;;18.83;6.68;;;;;;;-3.81;43.08;101185.75;10498551;28;20072;-54
2020/12/09 21:16:04;;;;;;;12.25;4.68;;;;;;;-3.80;42.98;101182.31;10500065;28;20059;-51
2020/12/09 21:21:06;;;;;;;9.70;3.95;;;;;;;-3.87;43.32;101198.63;10497980;28;20384;-50
2020/12/09 21:26:10;;;;;;;11.07;4.60;;;;;;;-3.89;43.15;101196.91;10498753;28;20060;-51
2020/12/09 21:31:19;;;;;;;12.48;3.28;;;;;;;-3.96;43.40;101196.06;10499357;28;20087;-50
2020/12/09 21:36:23;;;;;;;9.90;3.20;;;;;;;-4.01;43.25;101197.78;10498113;28;20371;-52
2020/12/09 21:41:26;;;;;;;10.05;4.05;;;;;;;-4.07;43.67;101184.94;10498970;28;20114;-50
2020/12/09 21:46:34;;;;;;;13.77;5.13;;;;;;;-4.14;43.74;101188.41;10497662;28;20048;-54
2020/12/09 21:51:38;;;;;;;9.23;3.25;;;;;;;-4.19;43.67;101189.25;10493410;28;20048;-54
2020/12/09 21:56:40;;;;;;;10.00;4.07;;;;;;;-4.28;44.15;101176.44;10498493;28;20440;-50
2020/12/09 22:01:42;;;;;;;11.88;5.07;;;;;;;-4.30;44.05;101185.84;10498181;28;20053;-53
2020/12/09 22:06:44;;;;;;;9.75;4.40;;;;;;;-4.33;44.06;101180.72;10497918;28;20055;-50
2020/12/09 22:11:49;;;;;;;10.60;4.43;;;;;;;-4.34;43.99;101179.00;10497213;28;20431;-50
2020/12/09 22:16:52;;;;;;;14.82;5.13;;;;;;;-4.36;43.98;101175.56;10498773;28;20059;-52
2020/12/09 22:21:55;;;;;;;9.10;4.05;;;;;;;-4.40;44.22;101168.75;10499039;28;20495;-52
2020/12/09 22:26:57;;;;;;;;;;;;;;;-4.44;44.33;101164.44;10498451;28;20440;-52
2020/12/09 22:31:58;;;;;;;12.65;5.32;;;;;;;-4.48;43.96;101152.47;10497018;28;19932;-51
2020/12/09 22:37:01;;;;;;;15.45;5.45;;;;;;;-4.52;44.25;101143.06;10497592;28;20060;-52
2020/12/09 22:42:02;;;;;;;12.15;5.03;;;;;;;-4.56;44.37;101147.31;10497076;28;20047;-50
2020/12/09 22:47:04;;;;;;;11.60;4.75;;;;;;;-4.58;44.21;101145.66;10496588;28;20153;-53
2020/12/09 22:52:07;;;;;;;12.45;4.22;;;;;;;-4.64;44.54;101139.66;10496583;28;20447;-52
2020/12/09 22:57:08;;;;;;;10.23;3.75;;;;;;;-4.73;44.65;101139.63;10498212;28;20053;-54
2020/12/09 23:02:10;;;;;;;6.55;2.95;;;;;;;-4.78;44.64;101130.22;10497528;28;20150;-50